sensor_id;sensor_type;location;lat;lon;timestamp;P1;durP1;ratioP1;P2;durP2;ratioP2
77968;SDS011;67161;0.000;0.000;2023-03-23T00:01:02;380.58;;;119.88;;
77968;SDS011;67161;0.000;0.000;2023-03-23T00:03:30;449.85;;;131.95;;
77968;SDS011;67161;0.000;0.000;2023-03-23T00:05:57;462.88;;;134.35;;
77968;SDS011;67161;0.000;0.000;2023-03-23T00:08:29;598.75;;;167.40;;
77968;SDS011;67161;0.000;0.000;2023-03-23T00:10:56;521.95;;;148.75;;
77968;SDS011;67161;0.000;0.000;2023-03-23T00:13:23;247.02;;;96.25;;
77968;SDS011;67161;0.000;0.000;2023-03-23T00:15:49;249.95;;;91.50;;
77968;SDS011;67161;0.000;0.000;2023-03-23T00:18:16;278.65;;;94.75;;
77968;SDS011;67161;0.000;0.000;2023-03-23T00:20:52;512.00;;;150.32;;
77968;SDS011;67161;0.000;0.000;2023-03-23T00:23:20;468.80;;;140.68;;
77968;SDS011;67161;0.000;0.000;2023-03-23T00:25:49;478.77;;;138.80;;
77968;SDS011;67161;0.000;0.000;2023-03-23T00:28:18;490.10;;;140.88;;
77968;SDS011;67161;0.000;0.000;2023-03-23T00:33:23;508.58;;;144.57;;
77968;SDS011;67161;0.000;0.000;2023-03-23T00:35:51;421.95;;;126.57;;
77968;SDS011;67161;0.000;0.000;2023-03-23T00:38:18;494.08;;;142.23;;
77968;SDS011;67161;0.000;0.000;2023-03-23T00:40:47;536.78;;;151.60;;
77968;SDS011;67161;0.000;0.000;2023-03-23T00:43:14;510.73;;;146.32;;
77968;SDS011;67161;0.000;0.000;2023-03-23T00:45:41;429.70;;;130.15;;
77968;SDS011;67161;0.000;0.000;2023-03-23T00:48:09;482.70;;;140.00;;
77968;SDS011;67161;0.000;0.000;2023-03-23T00:50:38;444.88;;;132.32;;
77968;SDS011;67161;0.000;0.000;2023-03-23T00:53:04;459.95;;;133.80;;
77968;SDS011;67161;0.000;0.000;2023-03-23T00:55:30;561.08;;;157.73;;
77968;SDS011;67161;0.000;0.000;2023-03-23T00:57:56;587.33;;;164.02;;
77968;SDS011;67161;0.000;0.000;2023-03-23T01:00:22;560.05;;;158.50;;
77968;SDS011;67161;0.000;0.000;2023-03-23T01:02:48;508.52;;;145.10;;
77968;SDS011;67161;0.000;0.000;2023-03-23T01:05:16;357.80;;;117.13;;
77968;SDS011;67161;0.000;0.000;2023-03-23T01:07:42;509.95;;;146.35;;
77968;SDS011;67161;0.000;0.000;2023-03-23T01:10:09;548.72;;;154.77;;
77968;SDS011;67161;0.000;0.000;2023-03-23T01:12:37;613.88;;;170.93;;
77968;SDS011;67161;0.000;0.000;2023-03-23T01:15:04;679.30;;;189.75;;
77968;SDS011;67161;0.000;0.000;2023-03-23T01:17:31;684.35;;;190.77;;
77968;SDS011;67161;0.000;0.000;2023-03-23T01:19:56;624.85;;;173.95;;
77968;SDS011;67161;0.000;0.000;2023-03-23T01:22:22;734.08;;;205.20;;
77968;SDS011;67161;0.000;0.000;2023-03-23T01:24:47;738.50;;;206.05;;
77968;SDS011;67161;0.000;0.000;2023-03-23T01:27:13;691.80;;;192.93;;
77968;SDS011;67161;0.000;0.000;2023-03-23T01:29:39;676.88;;;189.98;;
77968;SDS011;67161;0.000;0.000;2023-03-23T01:32:05;721.88;;;199.88;;
77968;SDS011;67161;0.000;0.000;2023-03-23T01:34:31;652.72;;;182.15;;
77968;SDS011;67161;0.000;0.000;2023-03-23T01:36:56;602.50;;;168.63;;
77968;SDS011;67161;0.000;0.000;2023-03-23T01:39:22;565.47;;;159.07;;
77968;SDS011;67161;0.000;0.000;2023-03-23T01:41:48;326.20;;;110.85;;
77968;SDS011;67161;0.000;0.000;2023-03-23T01:46:43;622.95;;;175.52;;
77968;SDS011;67161;0.000;0.000;2023-03-23T01:49:13;629.00;;;176.38;;
77968;SDS011;67161;0.000;0.000;2023-03-23T01:51:43;650.03;;;181.70;;
77968;SDS011;67161;0.000;0.000;2023-03-23T01:54:13;676.08;;;188.15;;
77968;SDS011;67161;0.000;0.000;2023-03-23T01:56:47;767.92;;;212.82;;
77968;SDS011;67161;0.000;0.000;2023-03-23T01:59:17;727.80;;;203.13;;
77968;SDS011;67161;0.000;0.000;2023-03-23T02:01:44;703.75;;;195.50;;
77968;SDS011;67161;0.000;0.000;2023-03-23T02:04:11;651.20;;;182.68;;
77968;SDS011;67161;0.000;0.000;2023-03-23T02:06:39;663.75;;;185.98;;
77968;SDS011;67161;0.000;0.000;2023-03-23T02:09:05;626.10;;;174.73;;
77968;SDS011;67161;0.000;0.000;2023-03-23T02:11:31;610.47;;;169.77;;
77968;SDS011;67161;0.000;0.000;2023-03-23T02:13:57;624.92;;;174.07;;
77968;SDS011;67161;0.000;0.000;2023-03-23T02:16:34;563.95;;;158.85;;
77968;SDS011;67161;0.000;0.000;2023-03-23T02:19:29;497.58;;;142.25;;
77968;SDS011;67161;0.000;0.000;2023-03-23T02:39:10;601.47;;;168.88;;
77968;SDS011;67161;0.000;0.000;2023-03-23T02:41:43;569.35;;;159.52;;
77968;SDS011;67161;0.000;0.000;2023-03-23T02:44:14;471.70;;;137.50;;
77968;SDS011;67161;0.000;0.000;2023-03-23T02:46:41;513.42;;;146.55;;
77968;SDS011;67161;0.000;0.000;2023-03-23T02:49:08;503.23;;;144.73;;
77968;SDS011;67161;0.000;0.000;2023-03-23T02:51:37;618.42;;;172.48;;
77968;SDS011;67161;0.000;0.000;2023-03-23T02:54:04;653.25;;;183.00;;
77968;SDS011;67161;0.000;0.000;2023-03-23T02:56:31;631.20;;;177.00;;
77968;SDS011;67161;0.000;0.000;2023-03-23T02:58:59;656.38;;;183.50;;
77968;SDS011;67161;0.000;0.000;2023-03-23T03:03:51;619.63;;;174.20;;
77968;SDS011;67161;0.000;0.000;2023-03-23T03:07:01;599.83;;;167.40;;
77968;SDS011;67161;0.000;0.000;2023-03-23T03:09:21;679.33;;;189.20;;
77968;SDS011;67161;0.000;0.000;2023-03-23T03:11:50;658.88;;;184.10;;
77968;SDS011;67161;0.000;0.000;2023-03-23T03:14:30;547.60;;;154.45;;
77968;SDS011;67161;0.000;0.000;2023-03-23T03:17:04;564.15;;;158.30;;
77968;SDS011;67161;0.000;0.000;2023-03-23T03:19:37;297.52;;;82.13;;
77968;SDS011;67161;0.000;0.000;2023-03-23T03:22:05;379.90;;;119.70;;
77968;SDS011;67161;0.000;0.000;2023-03-23T03:24:33;577.28;;;161.45;;
77968;SDS011;67161;0.000;0.000;2023-03-23T03:27:02;556.90;;;156.68;;
77968;SDS011;67161;0.000;0.000;2023-03-23T03:29:35;591.80;;;165.07;;
77968;SDS011;67161;0.000;0.000;2023-03-23T03:32:06;581.38;;;162.68;;
77968;SDS011;67161;0.000;0.000;2023-03-23T03:34:35;584.65;;;163.80;;
77968;SDS011;67161;0.000;0.000;2023-03-23T03:37:01;535.08;;;152.32;;
77968;SDS011;67161;0.000;0.000;2023-03-23T03:39:30;454.08;;;132.82;;
77968;SDS011;67161;0.000;0.000;2023-03-23T03:41:56;514.03;;;146.48;;
77968;SDS011;67161;0.000;0.000;2023-03-23T03:44:21;522.97;;;148.48;;
77968;SDS011;67161;0.000;0.000;2023-03-23T03:46:47;622.13;;;173.38;;
77968;SDS011;67161;0.000;0.000;2023-03-23T03:49:13;543.08;;;153.77;;
77968;SDS011;67161;0.000;0.000;2023-03-23T03:51:38;470.17;;;135.93;;
77968;SDS011;67161;0.000;0.000;2023-03-23T03:54:05;521.35;;;148.10;;
77968;SDS011;67161;0.000;0.000;2023-03-23T03:56:31;558.97;;;157.27;;
77968;SDS011;67161;0.000;0.000;2023-03-23T03:58:59;545.90;;;153.75;;
77968;SDS011;67161;0.000;0.000;2023-03-23T04:01:25;542.47;;;154.70;;
77968;SDS011;67161;0.000;0.000;2023-03-23T04:03:51;582.92;;;163.52;;
77968;SDS011;67161;0.000;0.000;2023-03-23T04:06:17;580.13;;;163.57;;
77968;SDS011;67161;0.000;0.000;2023-03-23T04:08:43;568.85;;;162.13;;
77968;SDS011;67161;0.000;0.000;2023-03-23T04:11:09;469.70;;;140.07;;
77968;SDS011;67161;0.000;0.000;2023-03-23T04:13:37;413.88;;;127.05;;
77968;SDS011;67161;0.000;0.000;2023-03-23T04:16:03;473.13;;;137.07;;
77968;SDS011;67161;0.000;0.000;2023-03-23T04:18:29;490.05;;;142.52;;
77968;SDS011;67161;0.000;0.000;2023-03-23T04:20:57;475.42;;;140.10;;
77968;SDS011;67161;0.000;0.000;2023-03-23T04:23:25;470.45;;;137.75;;
77968;SDS011;67161;0.000;0.000;2023-03-23T04:25:51;515.08;;;145.85;;
77968;SDS011;67161;0.000;0.000;2023-03-23T04:28:21;488.90;;;140.63;;
77968;SDS011;67161;0.000;0.000;2023-03-23T04:30:48;527.00;;;149.85;;
77968;SDS011;67161;0.000;0.000;2023-03-23T04:33:21;119.35;;;60.08;;
77968;SDS011;67161;0.000;0.000;2023-03-23T04:35:50;503.33;;;145.20;;
77968;SDS011;67161;0.000;0.000;2023-03-23T04:38:18;458.45;;;137.75;;
77968;SDS011;67161;0.000;0.000;2023-03-23T04:40:48;460.42;;;137.82;;
77968;SDS011;67161;0.000;0.000;2023-03-23T04:43:19;478.88;;;140.43;;
77968;SDS011;67161;0.000;0.000;2023-03-23T04:45:51;379.27;;;120.57;;
77968;SDS011;67161;0.000;0.000;2023-03-23T04:48:22;498.65;;;143.95;;
77968;SDS011;67161;0.000;0.000;2023-03-23T04:50:51;529.50;;;151.88;;
77968;SDS011;67161;0.000;0.000;2023-03-23T04:53:17;493.63;;;143.35;;
77968;SDS011;67161;0.000;0.000;2023-03-23T04:55:43;475.60;;;140.38;;
77968;SDS011;67161;0.000;0.000;2023-03-23T04:58:09;362.80;;;118.40;;
77968;SDS011;67161;0.000;0.000;2023-03-23T05:00:37;491.00;;;142.30;;
77968;SDS011;67161;0.000;0.000;2023-03-23T05:03:03;509.42;;;147.75;;
77968;SDS011;67161;0.000;0.000;2023-03-23T05:05:29;496.15;;;144.52;;
77968;SDS011;67161;0.000;0.000;2023-03-23T05:07:55;473.10;;;140.43;;
77968;SDS011;67161;0.000;0.000;2023-03-23T05:10:22;536.33;;;153.52;;
77968;SDS011;67161;0.000;0.000;2023-03-23T05:12:47;587.03;;;164.63;;
77968;SDS011;67161;0.000;0.000;2023-03-23T05:15:14;533.88;;;153.77;;
77968;SDS011;67161;0.000;0.000;2023-03-23T05:17:41;598.33;;;167.73;;
77968;SDS011;67161;0.000;0.000;2023-03-23T05:20:10;599.75;;;168.38;;
77968;SDS011;67161;0.000;0.000;2023-03-23T05:22:39;519.95;;;150.57;;
77968;SDS011;67161;0.000;0.000;2023-03-23T05:25:05;463.98;;;136.73;;
77968;SDS011;67161;0.000;0.000;2023-03-23T05:27:39;557.88;;;157.73;;
77968;SDS011;67161;0.000;0.000;2023-03-23T05:32:34;613.67;;;170.93;;
77968;SDS011;67161;0.000;0.000;2023-03-23T05:35:00;612.08;;;171.68;;
77968;SDS011;67161;0.000;0.000;2023-03-23T05:37:26;699.95;;;194.18;;
77968;SDS011;67161;0.000;0.000;2023-03-23T05:40:02;652.75;;;181.70;;
77968;SDS011;67161;0.000;0.000;2023-03-23T05:42:34;637.35;;;178.18;;
77968;SDS011;67161;0.000;0.000;2023-03-23T05:45:01;651.20;;;181.48;;
77968;SDS011;67161;0.000;0.000;2023-03-23T05:47:28;569.25;;;161.43;;
77968;SDS011;67161;0.000;0.000;2023-03-23T05:49:53;531.08;;;151.00;;
77968;SDS011;67161;0.000;0.000;2023-03-23T05:52:19;626.63;;;174.40;;
77968;SDS011;67161;0.000;0.000;2023-03-23T05:54:45;666.03;;;185.60;;
77968;SDS011;67161;0.000;0.000;2023-03-23T05:57:11;646.25;;;180.32;;
77968;SDS011;67161;0.000;0.000;2023-03-23T05:59:37;675.80;;;189.07;;
77968;SDS011;67161;0.000;0.000;2023-03-23T06:02:03;615.35;;;174.13;;
77968;SDS011;67161;0.000;0.000;2023-03-23T06:04:29;685.38;;;193.25;;
77968;SDS011;67161;0.000;0.000;2023-03-23T06:06:54;621.65;;;175.25;;
77968;SDS011;67161;0.000;0.000;2023-03-23T06:09:20;667.72;;;186.38;;
77968;SDS011;67161;0.000;0.000;2023-03-23T06:11:48;697.88;;;195.77;;
77968;SDS011;67161;0.000;0.000;2023-03-23T06:14:14;684.05;;;191.57;;
77968;SDS011;67161;0.000;0.000;2023-03-23T06:16:41;619.85;;;174.65;;
77968;SDS011;67161;0.000;0.000;2023-03-23T06:19:07;505.70;;;146.68;;
77968;SDS011;67161;0.000;0.000;2023-03-23T06:21:32;469.83;;;137.85;;
77968;SDS011;67161;0.000;0.000;2023-03-23T06:23:59;486.17;;;144.27;;
77968;SDS011;67161;0.000;0.000;2023-03-23T06:26:28;490.60;;;143.70;;
77968;SDS011;67161;0.000;0.000;2023-03-23T06:28:57;551.75;;;155.90;;
77968;SDS011;67161;0.000;0.000;2023-03-23T06:31:23;530.80;;;154.25;;
77968;SDS011;67161;0.000;0.000;2023-03-23T06:33:49;537.60;;;154.68;;
77968;SDS011;67161;0.000;0.000;2023-03-23T06:36:16;468.13;;;139.20;;
77968;SDS011;67161;0.000;0.000;2023-03-23T06:38:42;461.33;;;136.98;;
77968;SDS011;67161;0.000;0.000;2023-03-23T06:41:08;414.95;;;128.68;;
77968;SDS011;67161;0.000;0.000;2023-03-23T06:43:33;392.60;;;121.68;;
77968;SDS011;67161;0.000;0.000;2023-03-23T06:46:02;270.33;;;100.28;;
77968;SDS011;67161;0.000;0.000;2023-03-23T06:48:28;472.73;;;137.82;;
77968;SDS011;67161;0.000;0.000;2023-03-23T06:50:54;412.92;;;126.28;;
77968;SDS011;67161;0.000;0.000;2023-03-23T06:53:20;471.67;;;138.20;;
77968;SDS011;67161;0.000;0.000;2023-03-23T06:55:45;505.38;;;145.68;;
77968;SDS011;67161;0.000;0.000;2023-03-23T06:58:11;540.38;;;153.35;;
77968;SDS011;67161;0.000;0.000;2023-03-23T07:00:37;524.70;;;149.65;;
77968;SDS011;67161;0.000;0.000;2023-03-23T07:03:03;536.47;;;152.45;;
77968;SDS011;67161;0.000;0.000;2023-03-23T07:05:29;336.80;;;111.47;;
77968;SDS011;67161;0.000;0.000;2023-03-23T07:07:55;523.08;;;148.65;;
77968;SDS011;67161;0.000;0.000;2023-03-23T07:10:21;564.40;;;160.38;;
77968;SDS011;67161;0.000;0.000;2023-03-23T07:12:46;426.90;;;129.95;;
77968;SDS011;67161;0.000;0.000;2023-03-23T07:15:12;654.15;;;181.70;;
77968;SDS011;67161;0.000;0.000;2023-03-23T07:17:38;639.92;;;179.27;;
77968;SDS011;67161;0.000;0.000;2023-03-23T07:20:05;626.20;;;175.50;;
77968;SDS011;67161;0.000;0.000;2023-03-23T07:22:31;629.85;;;177.30;;
77968;SDS011;67161;0.000;0.000;2023-03-23T07:24:57;612.97;;;172.60;;
77968;SDS011;67161;0.000;0.000;2023-03-23T07:27:23;567.85;;;160.95;;
77968;SDS011;67161;0.000;0.000;2023-03-23T07:29:49;586.40;;;165.32;;
77968;SDS011;67161;0.000;0.000;2023-03-23T07:32:15;588.50;;;165.50;;
77968;SDS011;67161;0.000;0.000;2023-03-23T07:34:41;526.22;;;150.57;;
77968;SDS011;67161;0.000;0.000;2023-03-23T07:37:08;494.20;;;142.57;;
77968;SDS011;67161;0.000;0.000;2023-03-23T07:39:34;410.42;;;127.28;;
77968;SDS011;67161;0.000;0.000;2023-03-23T07:42:01;530.30;;;151.82;;
77968;SDS011;67161;0.000;0.000;2023-03-23T07:44:26;556.28;;;158.82;;
77968;SDS011;67161;0.000;0.000;2023-03-23T07:46:52;598.97;;;168.65;;
77968;SDS011;67161;0.000;0.000;2023-03-23T07:49:18;614.97;;;174.90;;
77968;SDS011;67161;0.000;0.000;2023-03-23T07:51:44;611.38;;;173.13;;
77968;SDS011;67161;0.000;0.000;2023-03-23T07:54:10;538.53;;;154.05;;
77968;SDS011;67161;0.000;0.000;2023-03-23T07:56:37;587.75;;;165.98;;
77968;SDS011;67161;0.000;0.000;2023-03-23T07:59:06;600.80;;;170.65;;
77968;SDS011;67161;0.000;0.000;2023-03-23T08:01:32;671.95;;;188.18;;
77968;SDS011;67161;0.000;0.000;2023-03-23T08:03:58;559.85;;;159.88;;
77968;SDS011;67161;0.000;0.000;2023-03-23T08:06:24;609.03;;;172.48;;
77968;SDS011;67161;0.000;0.000;2023-03-23T08:08:51;647.42;;;181.82;;
77968;SDS011;67161;0.000;0.000;2023-03-23T08:11:17;676.13;;;189.25;;
77968;SDS011;67161;0.000;0.000;2023-03-23T08:13:43;580.13;;;164.73;;
77968;SDS011;67161;0.000;0.000;2023-03-23T08:16:09;524.80;;;152.38;;
77968;SDS011;67161;0.000;0.000;2023-03-23T08:18:36;565.80;;;162.27;;
77968;SDS011;67161;0.000;0.000;2023-03-23T08:21:03;674.33;;;191.27;;
77968;SDS011;67161;0.000;0.000;2023-03-23T08:23:33;646.42;;;182.07;;
77968;SDS011;67161;0.000;0.000;2023-03-23T08:26:01;553.58;;;158.80;;
77968;SDS011;67161;0.000;0.000;2023-03-23T08:28:31;539.33;;;156.02;;
77968;SDS011;67161;0.000;0.000;2023-03-23T08:30:57;565.95;;;161.60;;
77968;SDS011;67161;0.000;0.000;2023-03-23T08:33:23;475.20;;;140.02;;
77968;SDS011;67161;0.000;0.000;2023-03-23T08:35:58;489.80;;;142.45;;
77968;SDS011;67161;0.000;0.000;2023-03-23T08:38:24;545.78;;;156.98;;
77968;SDS011;67161;0.000;0.000;2023-03-23T08:40:50;467.50;;;137.35;;
77968;SDS011;67161;0.000;0.000;2023-03-23T08:43:17;533.97;;;153.35;;
77968;SDS011;67161;0.000;0.000;2023-03-23T08:45:42;560.88;;;159.35;;
77968;SDS011;67161;0.000;0.000;2023-03-23T08:48:08;618.17;;;172.93;;
77968;SDS011;67161;0.000;0.000;2023-03-23T08:50:36;555.30;;;156.50;;
77968;SDS011;67161;0.000;0.000;2023-03-23T08:53:01;631.60;;;177.55;;
77968;SDS011;67161;0.000;0.000;2023-03-23T08:55:28;534.60;;;152.93;;
77968;SDS011;67161;0.000;0.000;2023-03-23T08:57:54;655.92;;;182.10;;
77968;SDS011;67161;0.000;0.000;2023-03-23T09:00:20;676.60;;;188.77;;
77968;SDS011;67161;0.000;0.000;2023-03-23T09:02:50;701.25;;;196.77;;
77968;SDS011;67161;0.000;0.000;2023-03-23T09:05:18;745.67;;;209.40;;
77968;SDS011;67161;0.000;0.000;2023-03-23T09:07:47;767.00;;;215.52;;
77968;SDS011;67161;0.000;0.000;2023-03-23T09:10:14;617.55;;;174.77;;
77968;SDS011;67161;0.000;0.000;2023-03-23T09:12:41;543.78;;;154.65;;
77968;SDS011;67161;0.000;0.000;2023-03-23T09:15:08;509.23;;;146.10;;
77968;SDS011;67161;0.000;0.000;2023-03-23T09:17:38;454.05;;;133.85;;
77968;SDS011;67161;0.000;0.000;2023-03-23T09:20:06;610.20;;;173.02;;
77968;SDS011;67161;0.000;0.000;2023-03-23T09:22:40;552.67;;;156.60;;
77968;SDS011;67161;0.000;0.000;2023-03-23T09:25:09;674.85;;;188.98;;
77968;SDS011;67161;0.000;0.000;2023-03-23T09:27:36;686.15;;;192.88;;
77968;SDS011;67161;0.000;0.000;2023-03-23T09:30:05;573.38;;;161.85;;
77968;SDS011;67161;0.000;0.000;2023-03-23T09:32:32;531.20;;;151.13;;
77968;SDS011;67161;0.000;0.000;2023-03-23T09:35:00;569.53;;;159.90;;
77968;SDS011;67161;0.000;0.000;2023-03-23T09:37:26;541.63;;;156.27;;
77968;SDS011;67161;0.000;0.000;2023-03-23T09:39:53;508.63;;;147.05;;
77968;SDS011;67161;0.000;0.000;2023-03-23T09:42:35;514.92;;;149.38;;
77968;SDS011;67161;0.000;0.000;2023-03-23T09:50:54;409.92;;;125.28;;
77968;SDS011;67161;0.000;0.000;2023-03-23T09:53:37;575.70;;;161.50;;
77968;SDS011;67161;0.000;0.000;2023-03-23T09:56:08;537.60;;;154.13;;
77968;SDS011;67161;0.000;0.000;2023-03-23T10:01:23;553.08;;;157.73;;
77968;SDS011;67161;0.000;0.000;2023-03-23T10:03:55;491.70;;;143.52;;
77968;SDS011;67161;0.000;0.000;2023-03-23T10:06:32;592.17;;;168.80;;
77968;SDS011;67161;0.000;0.000;2023-03-23T10:08:58;407.05;;;126.68;;
77968;SDS011;67161;0.000;0.000;2023-03-23T10:14:43;521.72;;;151.23;;
77968;SDS011;67161;0.000;0.000;2023-03-23T10:17:31;569.67;;;163.40;;
77968;SDS011;67161;0.000;0.000;2023-03-23T10:23:08;583.17;;;166.65;;
77968;SDS011;67161;0.000;0.000;2023-03-23T10:25:48;545.95;;;157.43;;
77968;SDS011;67161;0.000;0.000;2023-03-23T10:28:35;729.70;;;202.95;;
77968;SDS011;67161;0.000;0.000;2023-03-23T10:31:28;571.00;;;163.52;;
77968;SDS011;67161;0.000;0.000;2023-03-23T10:34:07;525.03;;;151.10;;
77968;SDS011;67161;0.000;0.000;2023-03-23T10:36:51;484.80;;;142.38;;
77968;SDS011;67161;0.000;0.000;2023-03-23T10:39:26;530.45;;;153.23;;
77968;SDS011;67161;0.000;0.000;2023-03-23T10:41:56;536.58;;;154.15;;
77968;SDS011;67161;0.000;0.000;2023-03-23T10:44:31;508.30;;;147.90;;
77968;SDS011;67161;0.000;0.000;2023-03-23T10:46:59;538.08;;;156.05;;
77968;SDS011;67161;0.000;0.000;2023-03-23T10:49:41;547.75;;;158.57;;
77968;SDS011;67161;0.000;0.000;2023-03-23T10:55:06;664.72;;;185.68;;
77968;SDS011;67161;0.000;0.000;2023-03-23T10:57:36;592.67;;;167.55;;
77968;SDS011;67161;0.000;0.000;2023-03-23T11:02:38;763.70;;;212.98;;
77968;SDS011;67161;0.000;0.000;2023-03-23T11:05:13;705.90;;;200.48;;
77968;SDS011;67161;0.000;0.000;2023-03-23T11:07:49;601.97;;;172.27;;
77968;SDS011;67161;0.000;0.000;2023-03-23T11:10:26;568.92;;;163.85;;
77968;SDS011;67161;0.000;0.000;2023-03-23T11:12:58;549.67;;;159.20;;
77968;SDS011;67161;0.000;0.000;2023-03-23T11:17:56;515.65;;;149.50;;
77968;SDS011;67161;0.000;0.000;2023-03-23T11:20:28;531.58;;;153.35;;
77968;SDS011;67161;0.000;0.000;2023-03-23T11:22:58;627.08;;;177.77;;
77968;SDS011;67161;0.000;0.000;2023-03-23T11:25:24;809.35;;;226.13;;
77968;SDS011;67161;0.000;0.000;2023-03-23T11:27:51;688.35;;;196.52;;
77968;SDS011;67161;0.000;0.000;2023-03-23T11:30:19;594.40;;;169.10;;
77968;SDS011;67161;0.000;0.000;2023-03-23T11:32:46;612.08;;;173.68;;
77968;SDS011;67161;0.000;0.000;2023-03-23T11:35:20;571.80;;;163.63;;
77968;SDS011;67161;0.000;0.000;2023-03-23T11:37:49;611.95;;;174.48;;
77968;SDS011;67161;0.000;0.000;2023-03-23T11:40:22;594.05;;;169.23;;
77968;SDS011;67161;0.000;0.000;2023-03-23T11:45:20;605.20;;;171.43;;
77968;SDS011;67161;0.000;0.000;2023-03-23T11:50:44;655.45;;;186.00;;
77968;SDS011;67161;0.000;0.000;2023-03-23T11:56:00;641.58;;;182.70;;
77968;SDS011;67161;0.000;0.000;2023-03-23T11:58:38;659.05;;;187.23;;
77968;SDS011;67161;0.000;0.000;2023-03-23T12:01:14;640.67;;;181.75;;
77968;SDS011;67161;0.000;0.000;2023-03-23T12:09:39;605.47;;;171.63;;
77968;SDS011;67161;0.000;0.000;2023-03-23T12:12:29;597.28;;;171.05;;
77968;SDS011;67161;0.000;0.000;2023-03-23T12:31:59;586.58;;;166.07;;
77968;SDS011;67161;0.000;0.000;2023-03-23T12:37:58;659.60;;;187.65;;
77968;SDS011;67161;0.000;0.000;2023-03-23T12:48:55;776.95;;;221.02;;
77968;SDS011;67161;0.000;0.000;2023-03-23T12:59:56;829.40;;;230.02;;
77968;SDS011;67161;0.000;0.000;2023-03-23T13:07:59;842.50;;;233.32;;
77968;SDS011;67161;0.000;0.000;2023-03-23T13:10:50;815.70;;;225.88;;
77968;SDS011;67161;0.000;0.000;2023-03-23T13:13:19;839.38;;;233.20;;
77968;SDS011;67161;0.000;0.000;2023-03-23T13:16:17;806.28;;;226.43;;
77968;SDS011;67161;0.000;0.000;2023-03-23T13:19:04;1014.33;;;273.33;;
77968;SDS011;67161;0.000;0.000;2023-03-23T13:24:31;1010.55;;;275.02;;
77968;SDS011;67161;0.000;0.000;2023-03-23T13:27:01;884.00;;;243.45;;
77968;SDS011;67161;0.000;0.000;2023-03-23T13:29:27;952.45;;;257.30;;
77968;SDS011;67161;0.000;0.000;2023-03-23T13:32:04;825.95;;;229.18;;
77968;SDS011;67161;0.000;0.000;2023-03-23T13:34:32;722.28;;;203.57;;
77968;SDS011;67161;0.000;0.000;2023-03-23T13:39:29;874.63;;;240.20;;
77968;SDS011;67161;0.000;0.000;2023-03-23T13:50:09;743.95;;;204.90;;
77968;SDS011;67161;0.000;0.000;2023-03-23T13:55:17;745.95;;;204.77;;
77968;SDS011;67161;0.000;0.000;2023-03-23T13:57:53;789.97;;;216.52;;
77968;SDS011;67161;0.000;0.000;2023-03-23T14:08:41;834.08;;;229.70;;
77968;SDS011;67161;0.000;0.000;2023-03-23T14:11:27;868.60;;;239.57;;
77968;SDS011;67161;0.000;0.000;2023-03-23T14:14:02;816.63;;;225.85;;
77968;SDS011;67161;0.000;0.000;2023-03-23T14:16:40;889.08;;;244.27;;
77968;SDS011;67161;0.000;0.000;2023-03-23T14:19:22;782.00;;;216.25;;
77968;SDS011;67161;0.000;0.000;2023-03-23T14:24:26;858.55;;;236.82;;
77968;SDS011;67161;0.000;0.000;2023-03-23T14:29:34;783.92;;;217.45;;
77968;SDS011;67161;0.000;0.000;2023-03-23T14:32:00;780.83;;;216.50;;
77968;SDS011;67161;0.000;0.000;2023-03-23T14:34:27;839.63;;;231.93;;
77968;SDS011;67161;0.000;0.000;2023-03-23T14:36:56;717.17;;;202.10;;
77968;SDS011;67161;0.000;0.000;2023-03-23T14:39:27;792.15;;;219.82;;
77968;SDS011;67161;0.000;0.000;2023-03-23T14:41:55;880.90;;;244.15;;
77968;SDS011;67161;0.000;0.000;2023-03-23T14:44:28;841.67;;;234.40;;
77968;SDS011;67161;0.000;0.000;2023-03-23T14:46:57;794.60;;;222.68;;
77968;SDS011;67161;0.000;0.000;2023-03-23T14:49:29;741.90;;;208.23;;
77968;SDS011;67161;0.000;0.000;2023-03-23T14:52:02;815.15;;;226.73;;
77968;SDS011;67161;0.000;0.000;2023-03-23T14:54:33;814.75;;;227.35;;
77968;SDS011;67161;0.000;0.000;2023-03-23T14:57:02;700.95;;;198.00;;
77968;SDS011;67161;0.000;0.000;2023-03-23T14:59:39;501.55;;;144.00;;
77968;SDS011;67161;0.000;0.000;2023-03-23T15:02:13;526.95;;;150.07;;
77968;SDS011;67161;0.000;0.000;2023-03-23T15:04:53;544.05;;;154.45;;
77968;SDS011;67161;0.000;0.000;2023-03-23T15:07:25;409.92;;;127.38;;
77968;SDS011;67161;0.000;0.000;2023-03-23T15:09:54;481.45;;;141.93;;
77968;SDS011;67161;0.000;0.000;2023-03-23T15:12:24;651.35;;;181.27;;
77968;SDS011;67161;0.000;0.000;2023-03-23T15:14:53;792.00;;;218.38;;
77968;SDS011;67161;0.000;0.000;2023-03-23T15:17:22;668.05;;;186.73;;
77968;SDS011;67161;0.000;0.000;2023-03-23T15:19:51;691.05;;;192.65;;
77968;SDS011;67161;0.000;0.000;2023-03-23T15:22:24;796.50;;;220.68;;
77968;SDS011;67161;0.000;0.000;2023-03-23T15:25:09;672.90;;;190.18;;
77968;SDS011;67161;0.000;0.000;2023-03-23T15:27:41;627.33;;;176.70;;
77968;SDS011;67161;0.000;0.000;2023-03-23T15:30:18;588.75;;;165.85;;
77968;SDS011;67161;0.000;0.000;2023-03-23T15:33:09;666.83;;;186.38;;
77968;SDS011;67161;0.000;0.000;2023-03-23T15:35:37;648.25;;;181.75;;
77968;SDS011;67161;0.000;0.000;2023-03-23T15:38:06;617.65;;;172.90;;
77968;SDS011;67161;0.000;0.000;2023-03-23T15:40:51;616.38;;;173.10;;
77968;SDS011;67161;0.000;0.000;2023-03-23T15:43:22;658.53;;;183.73;;
77968;SDS011;67161;0.000;0.000;2023-03-23T15:48:31;677.67;;;191.13;;
77968;SDS011;67161;0.000;0.000;2023-03-23T15:51:19;627.40;;;175.05;;
77968;SDS011;67161;0.000;0.000;2023-03-23T15:53:47;627.92;;;176.48;;
77968;SDS011;67161;0.000;0.000;2023-03-23T15:56:14;629.92;;;177.60;;
77968;SDS011;67161;0.000;0.000;2023-03-23T15:58:41;608.55;;;170.77;;
77968;SDS011;67161;0.000;0.000;2023-03-23T16:01:10;692.85;;;195.00;;
77968;SDS011;67161;0.000;0.000;2023-03-23T16:03:39;648.45;;;182.98;;
77968;SDS011;67161;0.000;0.000;2023-03-23T16:06:10;521.67;;;149.13;;
77968;SDS011;67161;0.000;0.000;2023-03-23T16:08:37;561.60;;;158.82;;
77968;SDS011;67161;0.000;0.000;2023-03-23T16:11:05;518.40;;;147.95;;
77968;SDS011;67161;0.000;0.000;2023-03-23T16:13:35;419.67;;;127.75;;
77968;SDS011;67161;0.000;0.000;2023-03-23T16:16:01;456.60;;;133.95;;
77968;SDS011;67161;0.000;0.000;2023-03-23T16:18:28;546.47;;;153.60;;
77968;SDS011;67161;0.000;0.000;2023-03-23T16:20:55;560.78;;;157.23;;
77968;SDS011;67161;0.000;0.000;2023-03-23T16:23:21;494.60;;;141.50;;
77968;SDS011;67161;0.000;0.000;2023-03-23T16:25:47;517.70;;;147.98;;
77968;SDS011;67161;0.000;0.000;2023-03-23T16:28:13;401.48;;;123.78;;
77968;SDS011;67161;0.000;0.000;2023-03-23T16:30:40;462.58;;;135.85;;
77968;SDS011;67161;0.000;0.000;2023-03-23T16:33:07;440.73;;;130.68;;
77968;SDS011;67161;0.000;0.000;2023-03-23T16:35:33;452.85;;;134.10;;
77968;SDS011;67161;0.000;0.000;2023-03-23T16:37:59;432.52;;;129.18;;
77968;SDS011;67161;0.000;0.000;2023-03-23T16:40:25;341.85;;;113.90;;